Time;durP1;ratioP1;P1;durP2;ratioP2;P2;SDS_P1;SDS_P2;PMS_P1;PMS_P2;Temp;Humidity;BMP_temperature;BMP_pressure;BME280_temperature;BME280_humidity;BME280_pressure;Samples;Min_cycle;Max_cycle;Signal;HPM_P1;HPM_P2
2021/12/08 00:00:07;;;;;;;4.45;3.72;;;17.00;43.40;;;;;;5092878;28;20221;-54
2021/12/08 00:02:34;;;;;;;5.15;3.67;;;17.00;43.40;;;;;;5094575;28;20191;-54
2021/12/08 00:05:02;;;;;;;5.95;4.35;;;17.00;43.40;;;;;;5094554;28;20231;-54
2021/12/08 00:07:29;;;;;;;4.85;3.83;;;17.00;43.40;;;;;;5094235;28;20241;-54
2021/12/08 00:10:05;;;;;;;4.50;3.72;;;16.90;43.40;;;;;;5094079;28;20210;-54
2021/12/08 00:15:18;;;;;;;4.38;3.35;;;16.90;43.40;;;;;;5094173;28;20661;-54
2021/12/08 00:17:45;;;;;;;4.55;3.70;;;16.90;43.50;;;;;;5094097;28;20218;-54
2021/12/08 00:20:12;;;;;;;4.00;3.42;;;16.90;43.50;;;;;;5094144;28;20221;-54
2021/12/08 00:22:39;;;;;;;5.70;3.65;;;16.80;43.50;;;;;;5092597;28;20593;-54
2021/12/08 00:25:07;;;;;;;3.55;3.25;;;16.80;43.40;;;;;;5092654;28;20206;-54
2021/12/08 00:27:34;;;;;;;4.22;3.63;;;16.80;43.40;;;;;;5092608;28;20191;-54
2021/12/08 00:30:02;;;;;;;3.90;3.30;;;16.80;43.50;;;;;;5092414;28;20244;-54
2021/12/08 00:32:32;;;;;;;4.55;3.40;;;16.80;43.60;;;;;;5092499;28;20190;-54
2021/12/08 00:34:59;;;;;;;3.80;3.33;;;16.70;43.60;;;;;;5094002;28;20178;-54
2021/12/08 00:37:27;;;;;;;4.20;3.65;;;16.70;43.60;;;;;;5092842;28;20205;-54
2021/12/08 00:39:54;;;;;;;3.97;3.38;;;16.80;44.30;;;;;;5093783;28;20576;-54
2021/12/08 00:42:22;;;;;;;4.20;3.22;;;16.70;43.60;;;;;;5093735;28;20594;-54
2021/12/08 00:44:49;;;;;;;4.97;3.58;;;16.70;43.70;;;;;;5093569;28;20727;-54
2021/12/08 00:47:16;;;;;;;3.67;3.20;;;16.70;43.60;;;;;;5093528;28;20186;-54
2021/12/08 00:49:46;;;;;;;3.55;3.25;;;16.70;43.70;;;;;;5093646;28;20218;-54
2021/12/08 00:52:14;;;;;;;5.13;3.35;;;16.70;43.60;;;;;;5093640;28;20198;-54
2021/12/08 00:54:41;;;;;;;4.03;3.00;;;16.70;43.70;;;;;;5093262;28;20212;-54
2021/12/08 00:57:08;;;;;;;4.97;3.60;;;16.70;44.30;;;;;;5093314;28;20618;-54
2021/12/08 00:59:35;;;;;;;3.38;3.08;;;16.60;43.60;;;;;;5091811;28;20613;-54
2021/12/08 01:02:03;;;;;;;4.25;3.40;;;16.60;43.70;;;;;;5093512;28;20620;-54
2021/12/08 01:04:30;;;;;;;3.10;2.80;;;16.60;43.80;;;;;;5091870;28;20213;-54
2021/12/08 01:06:59;;;;;;;5.05;2.95;;;16.60;43.70;;;;;;5093085;28;20214;-54
2021/12/08 01:09:26;;;;;;;3.65;2.97;;;16.60;43.80;;;;;;5093018;28;20702;-54
2021/12/08 01:11:55;;;;;;;3.60;3.28;;;16.60;43.70;;;;;;5091767;28;20285;-54
2021/12/08 01:14:22;;;;;;;3.60;2.72;;;16.60;43.80;;;;;;5092880;28;20217;-54
2021/12/08 01:16:51;;;;;;;3.20;2.90;;;16.60;43.90;;;;;;5092951;28;20606;-54
2021/12/08 01:19:18;;;;;;;4.05;3.03;;;16.60;43.90;;;;;;5093092;28;20213;-54
2021/12/08 01:21:45;;;;;;;3.85;3.05;;;16.60;43.80;;;;;;5092004;28;20600;-54
2021/12/08 01:24:13;;;;;;;4.45;3.47;;;16.50;43.80;;;;;;5092901;28;20190;-54
2021/12/08 01:26:40;;;;;;;3.55;3.15;;;16.50;43.90;;;;;;5092845;28;20243;-54
2021/12/08 01:29:08;;;;;;;3.60;2.78;;;16.50;43.90;;;;;;5092742;28;20206;-54
2021/12/08 01:31:39;;;;;;;3.42;3.10;;;16.50;43.90;;;;;;5092776;28;20201;-54
2021/12/08 01:34:06;;;;;;;3.33;3.03;;;16.50;43.80;;;;;;5092042;28;20267;-54
2021/12/08 01:36:33;;;;;;;3.10;2.67;;;16.50;43.90;;;;;;5092800;28;20790;-54
2021/12/08 01:39:00;;;;;;;3.28;2.90;;;16.50;43.90;;;;;;5092652;28;20249;-53
2021/12/08 01:41:29;;;;;;;3.28;2.80;;;16.50;43.90;;;;;;5091473;28;20232;-54
2021/12/08 01:46:40;;;;;;;5.20;3.05;;;16.40;43.90;;;;;;5091389;28;20182;-54
2021/12/08 01:49:07;;;;;;;3.28;2.97;;;16.50;44.10;;;;;;5092521;28;20248;-54
2021/12/08 01:51:35;;;;;;;3.30;3.00;;;16.50;44.00;;;;;;5091380;28;20582;-54
2021/12/08 01:54:04;;;;;;;2.90;2.70;;;16.40;44.00;;;;;;5092516;28;20312;-54
2021/12/08 01:56:34;;;;;;;4.75;2.97;;;16.40;44.20;;;;;;5092578;28;20224;-54
2021/12/08 01:59:01;;;;;;;2.83;2.45;;;16.40;44.10;;;;;;5092481;28;20241;-54
2021/12/08 02:01:29;;;;;;;4.30;2.92;;;16.40;44.10;;;;;;5092514;28;20243;-54
2021/12/08 02:04:03;;;;;;;3.05;2.78;;;16.40;44.10;;;;;;5091716;28;20213;-54
2021/12/08 02:06:31;;;;;;;2.80;2.60;;;16.40;44.20;;;;;;5092569;28;20193;-55
2021/12/08 02:08:58;;;;;;;3.17;2.60;;;16.40;44.20;;;;;;5091271;28;20224;-54
2021/12/08 02:11:25;;;;;;;3.17;2.55;;;16.40;44.10;;;;;;5092705;28;20695;-54
2021/12/08 02:14:00;;;;;;;3.63;2.80;;;16.30;44.10;;;;;;5092467;28;20353;-54
2021/12/08 02:16:27;;;;;;;3.10;2.55;;;16.40;44.10;;;;;;5092382;28;20665;-54
2021/12/08 02:18:54;;;;;;;2.92;2.70;;;16.30;44.20;;;;;;5092381;28;20334;-54
2021/12/08 02:21:25;;;;;;;2.67;2.47;;;16.30;44.20;;;;;;5091001;28;20281;-54
2021/12/08 02:23:52;;;;;;;2.63;2.42;;;16.30;44.20;;;;;;5092745;28;20186;-54
2021/12/08 02:26:19;;;;;;;3.25;2.88;;;16.30;44.20;;;;;;5092330;28;20700;-54
2021/12/08 02:28:47;;;;;;;2.65;2.40;;;16.30;44.30;;;;;;5091011;28;20249;-54
2021/12/08 02:31:19;;;;;;;2.92;2.65;;;16.30;44.30;;;;;;5091000;28;20648;-54
2021/12/08 02:47:44;;;;;;;2.47;2.28;;;16.20;44.40;;;;;;5094735;28;20193;-52
2021/12/08 02:50:12;;;;;;;2.70;2.50;;;16.20;44.40;;;;;;5094490;28;20214;-52
2021/12/08 02:52:40;;;;;;;2.63;2.42;;;16.20;44.50;;;;;;5094587;28;20256;-52
2021/12/08 02:55:08;;;;;;;3.58;2.58;;;16.20;44.50;;;;;;5094448;28;20306;-52
2021/12/08 02:57:35;;;;;;;3.83;2.80;;;16.20;44.50;;;;;;5095651;28;20583;-52
2021/12/08 03:00:04;;;;;;;3.35;2.90;;;16.20;44.50;;;;;;5095500;28;20248;-52
2021/12/08 03:02:31;;;;;;;2.55;2.35;;;16.20;44.60;;;;;;5095637;28;20189;-51
2021/12/08 03:04:58;;;;;;;3.10;2.50;;;16.20;44.50;;;;;;5095884;28;20178;-51
2021/12/08 03:07:25;;;;;;;2.55;2.35;;;16.20;44.60;;;;;;5095402;28;20197;-52
2021/12/08 03:09:53;;;;;;;3.15;2.50;;;16.20;44.60;;;;;;5094120;28;20210;-52
2021/12/08 03:12:28;;;;;;;2.55;2.35;;;16.20;44.50;;;;;;5094425;22;20225;-64
2021/12/08 03:14:55;;;;;;;2.70;2.50;;;16.10;44.50;;;;;;5074346;28;20206;-65
2021/12/08 03:17:22;;;;;;;2.85;2.65;;;16.20;44.60;;;;;;5075355;28;20191;-65
2021/12/08 03:19:49;;;;;;;2.50;2.30;;;16.10;44.50;;;;;;5074120;28;20194;-65
2021/12/08 03:22:16;;;;;;;2.55;2.35;;;16.10;44.60;;;;;;5074382;28;20218;-65
2021/12/08 03:24:46;;;;;;;2.55;2.35;;;16.20;44.70;;;;;;5074137;28;20229;-65
2021/12/08 03:27:17;;;;;;;2.60;2.40;;;16.10;44.50;;;;;;5074658;28;20226;-65
2021/12/08 03:29:50;;;;;;;2.60;2.40;;;16.10;44.60;;;;;;5074287;28;20195;-65
2021/12/08 03:32:18;;;;;;;2.45;2.25;;;16.10;44.70;;;;;;5073762;28;20186;-65
2021/12/08 03:34:51;;;;;;;3.40;2.67;;;16.10;44.60;;;;;;5073512;28;20218;-65
2021/12/08 03:37:19;;;;;;;2.70;2.50;;;16.10;44.60;;;;;;5075222;28;20258;-64
2021/12/08 03:39:48;;;;;;;2.78;2.40;;;16.10;44.60;;;;;;5073591;28;20248;-65
2021/12/08 03:42:17;;;;;;;2.70;2.42;;;16.10;44.70;;;;;;5073526;28;20237;-65
2021/12/08 03:44:44;;;;;;;2.78;2.58;;;16.10;44.60;;;;;;5074707;28;20666;-65
2021/12/08 03:47:15;;;;;;;2.40;2.20;;;16.10;44.60;;;;;;5073478;28;20199;-65
2021/12/08 03:49:43;;;;;;;2.30;2.10;;;16.10;44.50;;;;;;5075151;28;20175;-65
2021/12/08 03:52:11;;;;;;;3.05;2.30;;;16.10;44.60;;;;;;5073327;28;20203;-66
2021/12/08 03:54:38;;;;;;;2.50;2.30;;;16.10;44.50;;;;;;5073105;28;20214;-66
2021/12/08 03:57:05;;;;;;;3.10;2.17;;;16.10;44.50;;;;;;5072621;28;20218;-67
2021/12/08 03:59:34;;;;;;;2.72;2.47;;;16.10;44.50;;;;;;5073036;28;20252;-67
2021/12/08 04:02:01;;;;;;;2.95;2.60;;;16.10;44.60;;;;;;5074337;28;20714;-67
2021/12/08 04:04:30;;;;;;;2.17;2.00;;;16.10;44.50;;;;;;5074250;28;20194;-67
2021/12/08 04:07:02;;;;;;;2.35;2.15;;;16.00;44.40;;;;;;5074279;28;20683;-67
2021/12/08 04:09:32;;;;;;;2.08;1.98;;;16.10;44.60;;;;;;5072896;28;20187;-67
2021/12/08 04:12:00;;;;;;;2.40;2.20;;;16.00;44.40;;;;;;5072858;28;20238;-66
2021/12/08 04:14:29;;;;;;;2.40;2.20;;;16.00;44.50;;;;;;5074024;28;20224;-67
2021/12/08 04:16:59;;;;;;;2.42;2.10;;;16.00;44.70;;;;;;5072668;28;20219;-67
2021/12/08 04:19:26;;;;;;;2.90;2.50;;;16.00;44.70;;;;;;5072888;28;20642;-67
2021/12/08 04:21:55;;;;;;;2.10;2.00;;;16.00;44.80;;;;;;5073968;28;20211;-67
2021/12/08 04:24:23;;;;;;;2.50;2.30;;;16.00;44.60;;;;;;5073854;28;20273;-66
2021/12/08 04:26:55;;;;;;;2.45;2.25;;;16.00;44.50;;;;;;5072422;28;20224;-66
2021/12/08 04:29:24;;;;;;;2.60;2.40;;;16.00;44.70;;;;;;5073832;28;20647;-66
2021/12/08 04:31:52;;;;;;;3.13;2.28;;;16.00;44.60;;;;;;5072542;28;20662;-67
2021/12/08 04:34:26;;;;;;;2.75;2.20;;;16.00;44.50;;;;;;5073770;28;20686;-66
2021/12/08 04:36:54;;;;;;;2.60;2.35;;;16.00;44.50;;;;;;5073012;28;20276;-67
2021/12/08 04:39:25;;;;;;;2.50;2.30;;;16.10;44.50;;;;;;5072716;28;20201;-67
2021/12/08 04:41:59;;;;;;;2.50;2.30;;;16.10;44.50;;;;;;5072335;28;20677;-67
2021/12/08 04:44:33;;;;;;;2.33;2.13;;;16.10;44.50;;;;;;5072287;28;20593;-67
2021/12/08 04:47:24;;;;;;;2.50;2.30;;;16.10;44.30;;;;;;5072094;28;20221;-67
2021/12/08 04:52:58;;;;;;;2.40;2.20;;;16.20;44.50;;;;;;5072057;28;20198;-67
2021/12/08 05:03:51;;;;;;;2.15;1.95;;;16.20;44.30;;;;;;5071295;28;20199;-67
2021/12/08 05:06:35;;;;;;;2.05;1.85;;;16.20;44.30;;;;;;5071743;28;20218;-67
2021/12/08 05:09:04;;;;;;;2.45;2.15;;;16.30;44.30;;;;;;5071017;28;20605;-66
2021/12/08 05:11:33;;;;;;;3.45;2.42;;;16.30;44.10;;;;;;5071595;28;20198;-67
2021/12/08 05:14:02;;;;;;;2.28;2.10;;;16.30;44.70;;;;;;5072878;28;20213;-66
2021/12/08 05:16:30;;;;;;;2.35;2.15;;;16.30;44.20;;;;;;5071612;28;20223;-67
2021/12/08 05:18:58;;;;;;;2.25;2.05;;;16.30;44.10;;;;;;5071702;28;20205;-64
2021/12/08 05:21:28;;;;;;;2.55;2.35;;;16.40;44.20;;;;;;5071719;28;20198;-65
2021/12/08 05:23:58;;;;;;;2.72;2.25;;;16.30;44.00;;;;;;5071843;28;20286;-65
2021/12/08 05:26:28;;;;;;;2.38;2.17;;;16.40;43.90;;;;;;5071568;28;20250;-65
2021/12/08 05:28:56;;;;;;;2.25;2.08;;;16.40;44.00;;;;;;5071694;28;20206;-65
2021/12/08 05:31:25;;;;;;;2.90;2.38;;;16.40;44.00;;;;;;5071541;28;20293;-64
2021/12/08 05:33:53;;;;;;;2.58;2.00;;;16.40;43.90;;;;;;5073160;28;20643;-64
2021/12/08 05:36:20;;;;;;;2.50;2.30;;;16.40;43.90;;;;;;5073079;28;20714;-65
2021/12/08 05:38:49;;;;;;;2.40;2.10;;;16.40;43.90;;;;;;5071557;28;20756;-65
2021/12/08 05:41:18;;;;;;;2.50;2.30;;;16.40;44.10;;;;;;5072217;28;20195;-64
2021/12/08 05:44:19;;;;;;;2.53;2.33;;;16.50;44.10;;;;;;5011448;28;20254;-64
2021/12/08 05:46:47;;;;;;;2.40;2.20;;;16.50;44.40;;;;;;5014110;28;20220;-65
2021/12/08 05:49:16;;;;;;;2.45;2.25;;;16.50;44.00;;;;;;5011625;28;20275;-65
2021/12/08 05:51:43;;;;;;;2.42;2.22;;;16.50;44.30;;;;;;4994648;28;20586;-64
2021/12/08 05:54:19;;;;;;;2.38;2.17;;;16.60;44.20;;;;;;5011282;28;20247;-65
2021/12/08 05:56:46;;;;;;;3.13;2.33;;;16.60;44.30;;;;;;5010593;28;20667;-65
2021/12/08 05:59:13;;;;;;;2.40;2.20;;;16.60;44.30;;;;;;5010181;28;20279;-65
2021/12/08 06:01:42;;;;;;;2.58;2.38;;;16.60;44.30;;;;;;5010992;28;20219;-65
2021/12/08 06:04:11;;;;;;;3.10;2.42;;;16.70;44.20;;;;;;4995453;28;20255;-65
2021/12/08 06:06:38;;;;;;;2.40;2.20;;;16.70;44.30;;;;;;4995498;28;20227;-65
2021/12/08 06:09:06;;;;;;;2.60;2.22;;;16.70;44.80;;;;;;5012246;28;20197;-64
2021/12/08 06:11:34;;;;;;;2.35;2.10;;;16.70;44.10;;;;;;5012195;28;20196;-64
2021/12/08 06:14:01;;;;;;;2.40;2.20;;;16.70;44.00;;;;;;5014062;28;20275;-65
2021/12/08 06:16:28;;;;;;;3.13;2.40;;;16.80;43.90;;;;;;4995120;28;20656;-64
2021/12/08 06:18:55;;;;;;;3.60;2.20;;;16.80;44.00;;;;;;5013679;28;20399;-64
2021/12/08 06:21:25;;;;;;;2.33;2.20;;;16.80;44.10;;;;;;5016130;28;20645;-64
2021/12/08 06:23:52;;;;;;;2.42;2.28;;;16.80;44.60;;;;;;5015650;28;20291;-64
2021/12/08 06:26:20;;;;;;;2.70;2.40;;;16.80;43.90;;;;;;4999045;28;20223;-64
2021/12/08 06:28:48;;;;;;;2.60;2.10;;;16.80;43.80;;;;;;4998892;28;20200;-65
2021/12/08 06:31:16;;;;;;;2.45;2.25;;;16.90;43.90;;;;;;5015488;28;20208;-64
2021/12/08 06:33:44;;;;;;;2.58;2.33;;;16.80;43.70;;;;;;4998892;28;20207;-64
2021/12/08 06:36:12;;;;;;;2.70;2.50;;;16.80;43.70;;;;;;4998598;28;20228;-64
2021/12/08 06:38:40;;;;;;;4.32;2.50;;;16.90;43.80;;;;;;5015262;28;20196;-64
2021/12/08 06:41:11;;;;;;;2.42;2.22;;;16.90;43.90;;;;;;4998708;28;20291;-65
2021/12/08 06:43:39;;;;;;;3.35;2.33;;;16.90;43.90;;;;;;4998572;28;20205;-65
2021/12/08 06:46:08;;;;;;;3.25;2.22;;;16.90;43.70;;;;;;5016154;28;20205;-65
2021/12/08 06:51:13;;;;;;;2.60;2.40;;;16.90;43.30;;;;;;5252664;22;20769;-65
2021/12/08 06:53:41;;;;;;;2.97;2.30;;;17.00;44.10;;;;;;5078466;28;20205;-65
2021/12/08 06:56:10;;;;;;;3.20;2.40;;;16.90;43.40;;;;;;5078196;28;20218;-67
2021/12/08 06:58:39;;;;;;;2.50;2.20;;;17.00;43.40;;;;;;5078553;28;20201;-66
2021/12/08 07:01:18;;;;;;;2.80;2.40;;;17.00;43.40;;;;;;5078217;28;20274;-67
2021/12/08 07:03:52;;;;;;;2.70;2.20;;;17.00;43.40;;;;;;5078191;28;20198;-69
2021/12/08 07:06:41;;;;;;;2.22;2.00;;;17.00;43.40;;;;;;5078712;28;20284;-68
2021/12/08 07:09:08;;;;;;;2.03;1.92;;;17.00;43.40;;;;;;5078375;28;20194;-66
2021/12/08 07:11:36;;;;;;;2.22;2.13;;;17.00;43.40;;;;;;5077663;28;20229;-67
2021/12/08 07:14:03;;;;;;;2.30;2.10;;;17.00;43.40;;;;;;5096004;28;20194;-67
2021/12/08 07:16:33;;;;;;;2.58;2.30;;;17.00;43.30;;;;;;5096405;28;20206;-66
2021/12/08 07:19:08;;;;;;;2.63;2.40;;;17.00;43.40;;;;;;5078517;28;20320;-64
2021/12/08 07:21:37;;;;;;;2.95;2.28;;;17.00;43.40;;;;;;5078629;28;20226;-67
2021/12/08 07:24:07;;;;;;;2.45;2.25;;;17.00;43.20;;;;;;5078142;28;20194;-66
2021/12/08 07:26:36;;;;;;;3.00;2.75;;;17.00;43.40;;;;;;5077777;28;20190;-67
2021/12/08 07:29:04;;;;;;;2.45;2.25;;;17.00;43.20;;;;;;5077862;28;20202;-65
2021/12/08 07:31:34;;;;;;;2.60;2.40;;;17.00;43.30;;;;;;5076843;28;20249;-67
2021/12/08 07:34:06;;;;;;;2.75;2.55;;;17.00;43.20;;;;;;5077691;28;20198;-66
2021/12/08 07:36:33;;;;;;;3.22;2.40;;;17.00;43.10;;;;;;5077722;28;20210;-68
2021/12/08 07:39:00;;;;;;;3.70;2.50;;;17.10;43.20;;;;;;5077378;28;20194;-66
2021/12/08 07:41:30;;;;;;;2.70;2.50;;;17.10;43.50;;;;;;5095556;28;20202;-67
2021/12/08 07:43:59;;;;;;;3.25;2.53;;;17.10;43.10;;;;;;5095595;28;20264;-68
2021/12/08 07:46:27;;;;;;;2.80;2.50;;;17.10;43.00;;;;;;5077301;28;20198;-66
2021/12/08 07:48:57;;;;;;;3.70;2.65;;;17.10;43.00;;;;;;5077273;28;20202;-66
2021/12/08 07:51:35;;;;;;;2.40;2.20;;;17.10;42.80;;;;;;5076775;28;20229;-66
2021/12/08 07:54:05;;;;;;;2.97;2.50;;;17.10;42.90;;;;;;5076985;28;20284;-67
2021/12/08 07:56:33;;;;;;;3.00;2.63;;;17.10;42.90;;;;;;5094929;28;20202;-67
2021/12/08 07:59:02;;;;;;;2.60;2.40;;;17.20;43.00;;;;;;5076820;28;20289;-68
2021/12/08 08:01:31;;;;;;;2.65;2.45;;;17.20;42.90;;;;;;5076625;28;20214;-66
2021/12/08 08:04:00;;;;;;;3.15;2.85;;;17.20;43.00;;;;;;5076672;28;20304;-66
2021/12/08 08:06:29;;;;;;;2.88;2.67;;;17.20;43.40;;;;;;5094669;28;20213;-65
2021/12/08 08:08:55;;;;;;;2.97;2.78;;;17.20;42.70;;;;;;5095004;28;20189;-66
2021/12/08 08:11:25;;;;;;;2.78;2.58;;;17.20;42.80;;;;;;5076431;28;20218;-67
2021/12/08 08:13:52;;;;;;;2.70;2.50;;;17.20;42.80;;;;;;5076630;28;20390;-66
2021/12/08 08:16:23;;;;;;;3.47;2.80;;;17.20;42.80;;;;;;5076423;28;20210;-66
2021/12/08 08:18:55;;;;;;;2.75;2.55;;;17.20;42.70;;;;;;5076422;28;20234;-65
2021/12/08 08:21:25;;;;;;;2.70;2.40;;;17.20;42.80;;;;;;5076333;28;20234;-66
2021/12/08 08:23:53;;;;;;;2.40;2.30;;;17.20;42.80;;;;;;5076213;28;20662;-64
2021/12/08 08:26:20;;;;;;;2.50;2.30;;;17.30;43.20;;;;;;5094322;28;20218;-63
2021/12/08 08:28:50;;;;;;;3.47;2.75;;;17.20;42.70;;;;;;5076316;28;20202;-66
2021/12/08 08:31:19;;;;;;;2.72;2.53;;;17.30;42.80;;;;;;5094424;28;20241;-66
2021/12/08 08:33:47;;;;;;;2.60;2.40;;;17.30;42.80;;;;;;5076085;28;20685;-66
2021/12/08 08:36:15;;;;;;;2.75;2.53;;;17.30;42.80;;;;;;5075872;28;20244;-65
2021/12/08 08:38:45;;;;;;;3.30;2.60;;;17.30;42.80;;;;;;5075939;28;20210;-65
2021/12/08 08:41:15;;;;;;;2.45;2.25;;;17.30;42.80;;;;;;5094049;28;20621;-64
2021/12/08 08:43:42;;;;;;;2.90;2.63;;;17.30;42.90;;;;;;5075606;28;20198;-64
2021/12/08 08:46:11;;;;;;;2.50;2.30;;;17.30;42.70;;;;;;5075771;28;20213;-66
2021/12/08 08:48:41;;;;;;;2.70;2.50;;;17.30;42.80;;;;;;5094222;28;20198;-66
2021/12/08 08:51:09;;;;;;;3.47;2.50;;;17.30;42.80;;;;;;5075544;28;20728;-66
2021/12/08 08:53:38;;;;;;;3.03;2.80;;;17.30;42.70;;;;;;5075668;28;20197;-66
2021/12/08 08:56:10;;;;;;;3.30;2.40;;;17.30;42.60;;;;;;5075488;28;20217;-64
2021/12/08 08:58:38;;;;;;;2.42;2.25;;;17.30;42.60;;;;;;5094066;28;20556;-63
2021/12/08 09:01:07;;;;;;;3.20;2.67;;;17.40;42.70;;;;;;5093595;28;20293;-63
2021/12/08 09:03:36;;;;;;;3.05;2.72;;;17.40;42.60;;;;;;5075337;28;20205;-65
2021/12/08 09:06:06;;;;;;;2.83;2.53;;;17.40;43.20;;;;;;5075624;28;20197;-66
2021/12/08 09:08:34;;;;;;;2.72;2.53;;;17.40;43.20;;;;;;5075439;28;20702;-65
2021/12/08 09:11:02;;;;;;;2.70;2.50;;;17.40;42.60;;;;;;5075108;28;20231;-66
2021/12/08 09:13:33;;;;;;;2.60;2.40;;;17.40;42.60;;;;;;5075379;28;20201;-63
2021/12/08 09:16:01;;;;;;;2.90;2.70;;;17.40;42.60;;;;;;5093193;28;20296;-64
2021/12/08 09:18:34;;;;;;;2.75;2.55;;;17.40;42.50;;;;;;5075103;28;20284;-64
2021/12/08 09:21:12;;;;;;;2.45;2.35;;;17.40;42.30;;;;;;5093651;28;20220;-64
2021/12/08 09:23:45;;;;;;;3.55;2.40;;;17.40;42.60;;;;;;5075286;28;20200;-65
2021/12/08 09:26:13;;;;;;;3.20;2.50;;;17.50;42.50;;;;;;5075212;28;20667;-63
2021/12/08 09:28:43;;;;;;;2.83;2.53;;;17.40;42.60;;;;;;5093115;28;20674;-66
2021/12/08 09:31:16;;;;;;;3.00;2.70;;;17.40;42.60;;;;;;5075352;28;20698;-66
2021/12/08 09:33:45;;;;;;;2.63;2.42;;;17.40;42.60;;;;;;5075245;28;20202;-65
2021/12/08 09:36:14;;;;;;;2.70;2.50;;;17.40;42.60;;;;;;5075220;28;20631;-66
2021/12/08 09:38:43;;;;;;;2.80;2.60;;;17.40;42.50;;;;;;5075143;28;20194;-65
2021/12/08 09:41:13;;;;;;;2.85;2.55;;;17.50;42.60;;;;;;5074869;28;20225;-65
2021/12/08 09:43:43;;;;;;;3.03;2.72;;;17.50;42.60;;;;;;5093131;28;20190;-67
2021/12/08 09:46:12;;;;;;;3.10;2.78;;;17.50;42.60;;;;;;5075066;28;20591;-65
2021/12/08 09:48:39;;;;;;;3.53;2.70;;;17.50;42.60;;;;;;5074902;28;20226;-66
2021/12/08 09:51:06;;;;;;;2.92;2.60;;;17.50;42.50;;;;;;5074699;28;20221;-64
2021/12/08 09:53:35;;;;;;;2.88;2.67;;;17.50;42.60;;;;;;5075584;28;20712;-64
2021/12/08 09:56:03;;;;;;;2.70;2.50;;;17.50;42.50;;;;;;5079382;28;20217;-65
2021/12/08 09:58:30;;;;;;;2.70;2.50;;;17.50;42.60;;;;;;5079932;28;20200;-65
2021/12/08 10:00:59;;;;;;;2.90;2.70;;;17.50;42.60;;;;;;5097828;28;20292;-64
2021/12/08 10:03:27;;;;;;;3.15;2.40;;;17.50;42.60;;;;;;5098259;28;20255;-65
2021/12/08 10:05:55;;;;;;;2.97;2.72;;;17.50;42.60;;;;;;5080092;28;20194;-67
2021/12/08 10:08:22;;;;;;;2.90;2.60;;;17.50;42.60;;;;;;5080582;28;20261;-67
2021/12/08 10:10:49;;;;;;;3.30;2.80;;;17.50;42.60;;;;;;5085658;28;20309;-64
2021/12/08 10:13:17;;;;;;;2.70;2.50;;;17.50;42.60;;;;;;5080392;28;20244;-66
2021/12/08 10:15:44;;;;;;;3.05;2.85;;;17.50;42.60;;;;;;5098445;28;20210;-66
2021/12/08 10:18:13;;;;;;;2.83;2.50;;;17.50;42.60;;;;;;5080598;28;20197;-65
2021/12/08 10:20:41;;;;;;;2.90;2.70;;;17.50;42.60;;;;;;5080831;28;20773;-65
2021/12/08 10:23:17;;;;;;;2.72;2.53;;;17.50;42.60;;;;;;5080799;28;20198;-65
2021/12/08 10:25:46;;;;;;;3.03;2.83;;;17.50;42.50;;;;;;5080717;28;20189;-66
2021/12/08 10:28:15;;;;;;;3.28;2.97;;;17.60;42.50;;;;;;5080690;28;20202;-66
2021/12/08 10:30:46;;;;;;;2.65;2.45;;;17.60;42.50;;;;;;5097878;28;20209;-65
2021/12/08 10:33:47;;;;;;;3.65;3.00;;;17.60;42.50;;;;;;5080193;28;20289;-63
2021/12/08 10:39:08;;;;;;;3.10;2.65;;;17.60;42.30;;;;;;5069108;28;20568;-66
2021/12/08 10:41:51;;;;;;;2.80;2.60;;;17.60;42.20;;;;;;5080937;28;20285;-65
2021/12/08 10:44:21;;;;;;;2.63;2.50;;;17.70;42.40;;;;;;5081613;28;20202;-65
2021/12/08 10:46:48;;;;;;;2.83;2.63;;;17.70;42.30;;;;;;5080397;28;20273;-65
2021/12/08 10:49:22;;;;;;;3.15;2.90;;;17.70;42.30;;;;;;5086995;28;20284;-64
2021/12/08 10:54:35;;;;;;;3.03;2.72;;;17.70;42.30;;;;;;5079394;28;20634;-65
2021/12/08 10:57:05;;;;;;;3.15;2.85;;;17.70;42.40;;;;;;5096786;28;20210;-65
2021/12/08 10:59:55;;;;;;;4.65;3.15;;;17.70;42.40;;;;;;5079272;28;20190;-67
2021/12/08 11:02:46;;;;;;;3.15;2.88;;;17.70;42.20;;;;;;5096290;28;20205;-66
2021/12/08 11:05:45;;;;;;;3.42;2.70;;;17.70;42.20;;;;;;5078577;28;20198;-65
2021/12/08 11:08:15;;;;;;;3.72;3.42;;;17.70;42.10;;;;;;5078496;28;20728;-65
2021/12/08 11:10:43;;;;;;;3.40;3.20;;;17.80;42.30;;;;;;5078157;28;20772;-65
2021/12/08 11:13:11;;;;;;;3.55;3.25;;;17.80;42.10;;;;;;5077872;28;20202;-67
2021/12/08 11:15:39;;;;;;;4.60;3.03;;;17.80;42.00;;;;;;5095792;28;20193;-65
2021/12/08 11:18:15;;;;;;;3.55;3.28;;;17.80;42.00;;;;;;5095745;28;20228;-66
2021/12/08 11:20:51;;;;;;;3.20;2.90;;;17.80;42.00;;;;;;5077595;28;20213;-65
2021/12/08 11:23:38;;;;;;;3.50;3.20;;;17.90;42.00;;;;;;5095898;28;20231;-66
2021/12/08 11:26:10;;;;;;;4.20;3.03;;;17.90;41.90;;;;;;5077567;28;20665;-64
2021/12/08 11:28:38;;;;;;;3.28;3.00;;;17.90;41.90;;;;;;5077671;28;20280;-63
2021/12/08 11:31:06;;;;;;;3.05;2.70;;;17.90;41.80;;;;;;5095557;28;20300;-65
2021/12/08 11:33:36;;;;;;;3.42;3.13;;;17.90;41.80;;;;;;5077530;28;20198;-66
2021/12/08 11:36:09;;;;;;;3.22;2.92;;;17.90;41.70;;;;;;5095179;28;20190;-65
2021/12/08 11:38:36;;;;;;;2.95;2.75;;;17.90;41.90;;;;;;5077186;28;20194;-65
2021/12/08 11:41:09;;;;;;;3.03;2.80;;;17.90;41.90;;;;;;5077335;28;20214;-66
2021/12/08 11:43:39;;;;;;;2.85;2.65;;;18.00;42.00;;;;;;5077171;28;20208;-67
2021/12/08 11:46:14;;;;;;;2.95;2.75;;;17.90;42.00;;;;;;5077251;28;20194;-66
2021/12/08 11:48:57;;;;;;;3.22;2.90;;;17.90;42.60;;;;;;5077193;28;20178;-65
2021/12/08 11:51:25;;;;;;;3.33;3.03;;;17.90;41.90;;;;;;5076516;28;20316;-67
2021/12/08 11:53:52;;;;;;;2.92;2.72;;;17.90;42.00;;;;;;5076909;28;20190;-65
2021/12/08 11:56:46;;;;;;;3.00;2.80;;;17.90;42.10;;;;;;5076625;28;20622;-67
2021/12/08 11:59:15;;;;;;;3.17;2.97;;;17.90;41.90;;;;;;5031408;28;20267;-65
2021/12/08 12:01:42;;;;;;;3.05;2.75;;;17.90;42.10;;;;;;5076754;28;20229;-67
2021/12/08 12:04:11;;;;;;;2.92;2.72;;;17.90;41.90;;;;;;5076992;28;20251;-65
2021/12/08 12:06:39;;;;;;;3.65;3.15;;;17.90;42.10;;;;;;5076582;28;20208;-64
2021/12/08 12:09:08;;;;;;;3.70;3.22;;;18.00;42.20;;;;;;5076334;28;20582;-65
2021/12/08 12:11:35;;;;;;;3.38;3.08;;;18.00;42.20;;;;;;5076601;28;20224;-67
2021/12/08 12:14:02;;;;;;;3.05;2.85;;;18.00;42.70;;;;;;5094803;28;20725;-65
2021/12/08 12:16:29;;;;;;;3.33;3.00;;;18.00;42.10;;;;;;5076071;28;20331;-64
2021/12/08 12:18:59;;;;;;;3.17;2.90;;;18.00;42.10;;;;;;5076292;28;20198;-66
2021/12/08 12:21:36;;;;;;;3.45;2.97;;;18.00;42.10;;;;;;5076354;28;20206;-67
2021/12/08 12:24:11;;;;;;;3.70;3.40;;;18.00;42.10;;;;;;5094491;28;20166;-64
2021/12/08 12:26:44;;;;;;;3.63;3.33;;;18.00;42.00;;;;;;5094392;28;20196;-66
2021/12/08 12:29:19;;;;;;;4.47;4.07;;;18.00;42.00;;;;;;5094354;28;20704;-65
2021/12/08 12:31:49;;;;;;;3.67;3.38;;;18.00;42.10;;;;;;5094521;28;20210;-64
2021/12/08 12:34:25;;;;;;;3.50;3.20;;;18.10;42.20;;;;;;5076320;28;20791;-63
2021/12/08 12:36:52;;;;;;;3.17;2.97;;;18.00;42.00;;;;;;5076382;28;20304;-66
2021/12/08 12:39:22;;;;;;;3.90;3.60;;;18.10;42.10;;;;;;5076308;28;20289;-65
2021/12/08 12:41:58;;;;;;;3.85;3.55;;;18.10;42.00;;;;;;5076190;28;20241;-64
2021/12/08 12:44:27;;;;;;;3.50;3.20;;;18.10;42.00;;;;;;5076195;28;20213;-65
2021/12/08 12:47:19;;;;;;;3.70;3.40;;;18.10;42.00;;;;;;5094154;28;20212;-67
2021/12/08 12:49:47;;;;;;;3.20;3.00;;;18.10;42.00;;;;;;5094034;28;20202;-65
2021/12/08 12:52:15;;;;;;;3.60;3.30;;;18.10;42.00;;;;;;5082640;22;20222;-68
2021/12/08 12:54:44;;;;;;;3.33;3.03;;;18.10;41.90;;;;;;5056559;28;20653;-69
2021/12/08 12:57:11;;;;;;;2.83;2.63;;;18.10;41.90;;;;;;5074979;28;20234;-69
2021/12/08 12:59:40;;;;;;;3.03;2.75;;;18.10;41.80;;;;;;5056952;28;20306;-67
2021/12/08 13:02:08;;;;;;;3.30;3.00;;;18.10;41.80;;;;;;5064999;28;20316;-69
2021/12/08 13:04:36;;;;;;;3.45;3.15;;;18.20;41.80;;;;;;5076321;28;20217;-68
2021/12/08 13:07:04;;;;;;;3.60;3.25;;;18.20;41.80;;;;;;5076023;28;20195;-68
2021/12/08 13:09:47;;;;;;;3.40;3.20;;;18.20;41.80;;;;;;5076124;28;20252;-69
2021/12/08 13:12:16;;;;;;;3.50;3.20;;;18.20;41.70;;;;;;5075740;28;20228;-69
2021/12/08 13:14:43;;;;;;;3.72;3.40;;;18.20;41.80;;;;;;5075581;28;20204;-69
2021/12/08 13:17:24;;;;;;;3.33;3.03;;;18.20;41.70;;;;;;5075790;28;20222;-71
2021/12/08 13:19:54;;;;;;;3.42;3.10;;;18.20;41.70;;;;;;5075799;28;20189;-70
2021/12/08 13:22:44;;;;;;;3.15;2.95;;;18.20;41.70;;;;;;5093706;28;20210;-69
2021/12/08 13:25:31;;;;;;;3.60;3.30;;;18.20;41.60;;;;;;5093577;28;20197;-69
2021/12/08 13:28:10;;;;;;;3.05;2.85;;;18.20;41.80;;;;;;5075661;28;20202;-70
2021/12/08 13:30:44;;;;;;;3.15;2.95;;;18.20;41.70;;;;;;5093431;28;20174;-69
2021/12/08 13:33:29;;;;;;;3.22;3.00;;;18.20;41.80;;;;;;5093570;28;20213;-70
2021/12/08 13:42:03;;;;;;;2.97;2.70;;;18.20;41.80;;;;;;5039338;28;20273;-67
2021/12/08 13:44:35;;;;;;;4.18;3.03;;;18.20;41.80;;;;;;5144491;22;20238;-69
2021/12/08 13:47:03;;;;;;;2.90;2.70;;;18.20;42.20;;;;;;5067175;28;20190;-70